sensor_id;sensor_type;location;lat;lon;timestamp;temperature;humidity
68766;DHT22;55756;45.582;11.484;2024-01-30T00:01:51;8.30;55.50
68766;DHT22;55756;45.582;11.484;2024-01-30T00:04:17;8.30;55.50
68766;DHT22;55756;45.582;11.484;2024-01-30T00:06:44;8.20;55.60
68766;DHT22;55756;45.582;11.484;2024-01-30T00:09:09;8.20;55.80
68766;DHT22;55756;45.582;11.484;2024-01-30T00:11:38;8.20;56.00
68766;DHT22;55756;45.582;11.484;2024-01-30T00:14:04;8.20;55.90
68766;DHT22;55756;45.582;11.484;2024-01-30T00:16:30;8.20;55.80
68766;DHT22;55756;45.582;11.484;2024-01-30T00:18:56;8.20;55.60
68766;DHT22;55756;45.582;11.484;2024-01-30T00:21:22;8.20;55.40
68766;DHT22;55756;45.582;11.484;2024-01-30T00:23:48;8.20;55.40
68766;DHT22;55756;45.582;11.484;2024-01-30T00:26:14;8.20;55.30
68766;DHT22;55756;45.582;11.484;2024-01-30T00:28:43;8.20;55.00
68766;DHT22;55756;45.582;11.484;2024-01-30T00:31:09;8.20;54.80
68766;DHT22;55756;45.582;11.484;2024-01-30T00:33:38;8.20;54.80
68766;DHT22;55756;45.582;11.484;2024-01-30T00:36:05;8.20;54.80
68766;DHT22;55756;45.582;11.484;2024-01-30T00:38:32;8.10;54.60
68766;DHT22;55756;45.582;11.484;2024-01-30T00:40:58;8.10;54.80
68766;DHT22;55756;45.582;11.484;2024-01-30T00:43:24;8.10;54.80
68766;DHT22;55756;45.582;11.484;2024-01-30T00:45:51;8.10;54.80
68766;DHT22;55756;45.582;11.484;2024-01-30T00:48:18;8.00;54.60
68766;DHT22;55756;45.582;11.484;2024-01-30T00:50:43;8.00;54.50
68766;DHT22;55756;45.582;11.484;2024-01-30T00:53:09;8.00;54.50
68766;DHT22;55756;45.582;11.484;2024-01-30T00:55:35;8.00;54.60
68766;DHT22;55756;45.582;11.484;2024-01-30T00:58:01;8.00;54.40
68766;DHT22;55756;45.582;11.484;2024-01-30T01:00:27;8.00;54.80
68766;DHT22;55756;45.582;11.484;2024-01-30T01:02:58;8.00;54.50
68766;DHT22;55756;45.582;11.484;2024-01-30T01:05:24;8.00;54.40
68766;DHT22;55756;45.582;11.484;2024-01-30T01:07:49;7.90;54.20
68766;DHT22;55756;45.582;11.484;2024-01-30T01:10:16;7.90;54.30
68766;DHT22;55756;45.582;11.484;2024-01-30T01:12:42;7.90;54.40
68766;DHT22;55756;45.582;11.484;2024-01-30T01:15:09;7.90;54.30
68766;DHT22;55756;45.582;11.484;2024-01-30T01:17:40;7.90;54.40
68766;DHT22;55756;45.582;11.484;2024-01-30T01:20:07;7.90;54.30
68766;DHT22;55756;45.582;11.484;2024-01-30T01:22:33;7.80;54.50
68766;DHT22;55756;45.582;11.484;2024-01-30T01:25:00;7.80;54.40
68766;DHT22;55756;45.582;11.484;2024-01-30T01:27:26;7.80;54.50
68766;DHT22;55756;45.582;11.484;2024-01-30T01:29:52;7.80;54.60
68766;DHT22;55756;45.582;11.484;2024-01-30T01:32:18;7.80;54.50
68766;DHT22;55756;45.582;11.484;2024-01-30T01:34:44;7.80;54.40
68766;DHT22;55756;45.582;11.484;2024-01-30T01:37:10;7.80;54.70
68766;DHT22;55756;45.582;11.484;2024-01-30T01:39:36;7.70;54.60
68766;DHT22;55756;45.582;11.484;2024-01-30T01:42:01;7.70;54.70
68766;DHT22;55756;45.582;11.484;2024-01-30T01:44:27;7.70;54.60
68766;DHT22;55756;45.582;11.484;2024-01-30T01:46:54;7.70;54.60
68766;DHT22;55756;45.582;11.484;2024-01-30T01:49:24;7.70;54.70
68766;DHT22;55756;45.582;11.484;2024-01-30T01:51:51;7.70;54.70
68766;DHT22;55756;45.582;11.484;2024-01-30T01:54:19;7.70;54.80
68766;DHT22;55756;45.582;11.484;2024-01-30T01:56:45;7.70;54.60
68766;DHT22;55756;45.582;11.484;2024-01-30T01:59:11;7.70;54.70
68766;DHT22;55756;45.582;11.484;2024-01-30T02:01:37;7.70;54.90
68766;DHT22;55756;45.582;11.484;2024-01-30T02:04:02;7.70;54.90
68766;DHT22;55756;45.582;11.484;2024-01-30T02:06:29;7.70;54.80
68766;DHT22;55756;45.582;11.484;2024-01-30T02:08:55;7.70;54.90
68766;DHT22;55756;45.582;11.484;2024-01-30T02:11:22;7.70;54.80
68766;DHT22;55756;45.582;11.484;2024-01-30T02:13:48;7.70;54.90
68766;DHT22;55756;45.582;11.484;2024-01-30T02:16:14;7.70;54.70
68766;DHT22;55756;45.582;11.484;2024-01-30T02:18:40;7.70;54.60
68766;DHT22;55756;45.582;11.484;2024-01-30T02:21:12;7.70;54.60
68766;DHT22;55756;45.582;11.484;2024-01-30T02:23:39;7.60;54.40
68766;DHT22;55756;45.582;11.484;2024-01-30T02:26:06;7.60;54.40
68766;DHT22;55756;45.582;11.484;2024-01-30T02:28:32;7.60;54.30
68766;DHT22;55756;45.582;11.484;2024-01-30T02:30:58;7.60;54.10
68766;DHT22;55756;45.582;11.484;2024-01-30T02:33:23;7.60;54.10
68766;DHT22;55756;45.582;11.484;2024-01-30T02:35:49;7.60;54.10
68766;DHT22;55756;45.582;11.484;2024-01-30T02:38:18;7.60;53.90
68766;DHT22;55756;45.582;11.484;2024-01-30T02:40:43;7.50;54.00
68766;DHT22;55756;45.582;11.484;2024-01-30T02:43:09;7.50;54.10
68766;DHT22;55756;45.582;11.484;2024-01-30T02:45:35;7.50;54.00
68766;DHT22;55756;45.582;11.484;2024-01-30T02:48:01;7.50;54.00
68766;DHT22;55756;45.582;11.484;2024-01-30T02:50:26;7.50;54.00
68766;DHT22;55756;45.582;11.484;2024-01-30T02:52:52;7.50;53.70
68766;DHT22;55756;45.582;11.484;2024-01-30T02:55:18;7.50;54.10
68766;DHT22;55756;45.582;11.484;2024-01-30T02:57:44;7.50;53.90
68766;DHT22;55756;45.582;11.484;2024-01-30T03:00:10;7.50;53.60
68766;DHT22;55756;45.582;11.484;2024-01-30T03:02:36;7.50;53.50
68766;DHT22;55756;45.582;11.484;2024-01-30T03:05:02;7.50;53.50
68766;DHT22;55756;45.582;11.484;2024-01-30T03:07:29;7.40;53.50
68766;DHT22;55756;45.582;11.484;2024-01-30T03:09:55;7.40;53.60
68766;DHT22;55756;45.582;11.484;2024-01-30T03:12:22;7.40;53.80
68766;DHT22;55756;45.582;11.484;2024-01-30T03:14:47;7.40;53.80
68766;DHT22;55756;45.582;11.484;2024-01-30T03:17:14;7.40;53.70
68766;DHT22;55756;45.582;11.484;2024-01-30T03:19:40;7.40;53.60
68766;DHT22;55756;45.582;11.484;2024-01-30T03:22:06;7.40;53.70
68766;DHT22;55756;45.582;11.484;2024-01-30T03:24:32;7.40;53.60
68766;DHT22;55756;45.582;11.484;2024-01-30T03:26:58;7.40;53.60
68766;DHT22;55756;45.582;11.484;2024-01-30T03:29:24;7.40;53.50
68766;DHT22;55756;45.582;11.484;2024-01-30T03:31:50;7.40;53.50
68766;DHT22;55756;45.582;11.484;2024-01-30T03:34:16;7.40;53.40
68766;DHT22;55756;45.582;11.484;2024-01-30T03:36:41;7.40;53.30
68766;DHT22;55756;45.582;11.484;2024-01-30T03:39:07;7.30;53.50
68766;DHT22;55756;45.582;11.484;2024-01-30T03:41:33;7.30;53.60
68766;DHT22;55756;45.582;11.484;2024-01-30T03:43:59;7.30;53.40
68766;DHT22;55756;45.582;11.484;2024-01-30T03:46:25;7.30;53.30
68766;DHT22;55756;45.582;11.484;2024-01-30T03:48:50;7.30;53.60
68766;DHT22;55756;45.582;11.484;2024-01-30T03:51:16;7.30;53.40
68766;DHT22;55756;45.582;11.484;2024-01-30T03:53:42;7.30;53.50
68766;DHT22;55756;45.582;11.484;2024-01-30T03:56:09;7.30;53.30
68766;DHT22;55756;45.582;11.484;2024-01-30T03:58:35;7.30;53.40
68766;DHT22;55756;45.582;11.484;2024-01-30T04:01:01;7.30;53.40
68766;DHT22;55756;45.582;11.484;2024-01-30T04:03:27;7.30;53.30
68766;DHT22;55756;45.582;11.484;2024-01-30T04:05:52;7.20;53.20
68766;DHT22;55756;45.582;11.484;2024-01-30T04:08:19;7.20;53.20
68766;DHT22;55756;45.582;11.484;2024-01-30T04:10:45;7.20;53.10
68766;DHT22;55756;45.582;11.484;2024-01-30T04:13:11;7.20;53.10
68766;DHT22;55756;45.582;11.484;2024-01-30T04:15:37;7.20;53.00
68766;DHT22;55756;45.582;11.484;2024-01-30T04:18:03;7.20;53.00
68766;DHT22;55756;45.582;11.484;2024-01-30T04:20:29;7.20;53.10
68766;DHT22;55756;45.582;11.484;2024-01-30T04:22:55;7.20;53.10
68766;DHT22;55756;45.582;11.484;2024-01-30T04:25:21;7.20;53.00
68766;DHT22;55756;45.582;11.484;2024-01-30T04:27:47;7.20;53.00
68766;DHT22;55756;45.582;11.484;2024-01-30T04:30:13;7.10;53.10
68766;DHT22;55756;45.582;11.484;2024-01-30T04:32:39;7.10;53.10
68766;DHT22;55756;45.582;11.484;2024-01-30T04:35:05;7.10;53.20
68766;DHT22;55756;45.582;11.484;2024-01-30T04:37:31;7.10;53.00
68766;DHT22;55756;45.582;11.484;2024-01-30T04:39:57;7.10;53.00
68766;DHT22;55756;45.582;11.484;2024-01-30T04:42:23;7.10;53.00
68766;DHT22;55756;45.582;11.484;2024-01-30T04:44:49;7.10;53.00
68766;DHT22;55756;45.582;11.484;2024-01-30T04:47:14;7.10;53.20
68766;DHT22;55756;45.582;11.484;2024-01-30T04:49:40;7.10;53.10
68766;DHT22;55756;45.582;11.484;2024-01-30T04:52:07;7.00;53.20
68766;DHT22;55756;45.582;11.484;2024-01-30T04:54:33;7.10;53.10
68766;DHT22;55756;45.582;11.484;2024-01-30T04:57:00;7.00;53.10
68766;DHT22;55756;45.582;11.484;2024-01-30T04:59:26;7.00;53.30
68766;DHT22;55756;45.582;11.484;2024-01-30T05:01:51;7.00;53.40
68766;DHT22;55756;45.582;11.484;2024-01-30T05:04:17;7.00;53.50
68766;DHT22;55756;45.582;11.484;2024-01-30T05:06:43;7.00;53.40
68766;DHT22;55756;45.582;11.484;2024-01-30T05:09:09;7.00;53.30
68766;DHT22;55756;45.582;11.484;2024-01-30T05:11:41;7.00;53.30
68766;DHT22;55756;45.582;11.484;2024-01-30T05:14:07;7.00;53.20
68766;DHT22;55756;45.582;11.484;2024-01-30T05:16:34;7.00;53.30
68766;DHT22;55756;45.582;11.484;2024-01-30T05:19:00;7.00;53.20
68766;DHT22;55756;45.582;11.484;2024-01-30T05:21:26;7.00;53.40
68766;DHT22;55756;45.582;11.484;2024-01-30T05:23:52;7.00;53.40
68766;DHT22;55756;45.582;11.484;2024-01-30T05:26:18;7.00;53.30
68766;DHT22;55756;45.582;11.484;2024-01-30T05:28:43;7.00;53.20
68766;DHT22;55756;45.582;11.484;2024-01-30T05:31:12;7.00;53.30
68766;DHT22;55756;45.582;11.484;2024-01-30T05:33:38;7.00;53.00
68766;DHT22;55756;45.582;11.484;2024-01-30T05:36:04;7.00;53.10
68766;DHT22;55756;45.582;11.484;2024-01-30T05:38:29;7.00;53.10
68766;DHT22;55756;45.582;11.484;2024-01-30T05:40:56;7.00;53.10
68766;DHT22;55756;45.582;11.484;2024-01-30T05:43:24;6.90;53.40
68766;DHT22;55756;45.582;11.484;2024-01-30T05:45:50;6.90;53.30
68766;DHT22;55756;45.582;11.484;2024-01-30T05:48:16;6.90;53.40
68766;DHT22;55756;45.582;11.484;2024-01-30T05:50:42;6.90;53.20
68766;DHT22;55756;45.582;11.484;2024-01-30T05:53:07;6.90;53.30
68766;DHT22;55756;45.582;11.484;2024-01-30T05:55:33;6.90;53.10
68766;DHT22;55756;45.582;11.484;2024-01-30T05:57:59;6.80;53.00
68766;DHT22;55756;45.582;11.484;2024-01-30T06:00:25;6.90;53.00
68766;DHT22;55756;45.582;11.484;2024-01-30T06:02:50;6.90;53.00
68766;DHT22;55756;45.582;11.484;2024-01-30T06:05:16;6.90;53.00
68766;DHT22;55756;45.582;11.484;2024-01-30T06:07:42;6.90;53.20
68766;DHT22;55756;45.582;11.484;2024-01-30T06:10:08;6.90;53.10
68766;DHT22;55756;45.582;11.484;2024-01-30T06:12:34;6.80;53.00
68766;DHT22;55756;45.582;11.484;2024-01-30T06:15:01;6.90;53.00
68766;DHT22;55756;45.582;11.484;2024-01-30T06:17:26;6.90;53.10
68766;DHT22;55756;45.582;11.484;2024-01-30T06:19:52;6.80;53.10
68766;DHT22;55756;45.582;11.484;2024-01-30T06:22:18;6.80;53.10
68766;DHT22;55756;45.582;11.484;2024-01-30T06:24:44;6.80;53.30
68766;DHT22;55756;45.582;11.484;2024-01-30T06:27:10;6.80;53.40
68766;DHT22;55756;45.582;11.484;2024-01-30T06:29:36;6.80;53.60
68766;DHT22;55756;45.582;11.484;2024-01-30T06:32:02;6.80;53.60
68766;DHT22;55756;45.582;11.484;2024-01-30T06:34:28;6.80;53.40
68766;DHT22;55756;45.582;11.484;2024-01-30T06:36:53;6.80;53.20
68766;DHT22;55756;45.582;11.484;2024-01-30T06:39:19;6.80;53.20
68766;DHT22;55756;45.582;11.484;2024-01-30T06:41:45;6.80;53.20
68766;DHT22;55756;45.582;11.484;2024-01-30T06:44:12;6.80;53.10
68766;DHT22;55756;45.582;11.484;2024-01-30T06:46:38;6.80;53.10
68766;DHT22;55756;45.582;11.484;2024-01-30T06:49:04;6.70;53.00
68766;DHT22;55756;45.582;11.484;2024-01-30T06:51:31;6.70;52.80
68766;DHT22;55756;45.582;11.484;2024-01-30T06:53:56;6.70;52.90
68766;DHT22;55756;45.582;11.484;2024-01-30T06:56:22;6.70;52.70
68766;DHT22;55756;45.582;11.484;2024-01-30T06:58:49;6.70;52.90
68766;DHT22;55756;45.582;11.484;2024-01-30T07:01:15;6.70;52.80
68766;DHT22;55756;45.582;11.484;2024-01-30T07:03:41;6.70;52.90
68766;DHT22;55756;45.582;11.484;2024-01-30T07:06:07;6.70;52.80
68766;DHT22;55756;45.582;11.484;2024-01-30T07:08:33;6.70;52.90
68766;DHT22;55756;45.582;11.484;2024-01-30T07:10:58;6.70;52.80
68766;DHT22;55756;45.582;11.484;2024-01-30T07:13:24;6.70;53.00
68766;DHT22;55756;45.582;11.484;2024-01-30T07:15:50;6.70;53.00
68766;DHT22;55756;45.582;11.484;2024-01-30T07:18:16;6.70;52.90
68766;DHT22;55756;45.582;11.484;2024-01-30T07:20:42;6.70;53.10
68766;DHT22;55756;45.582;11.484;2024-01-30T07:23:12;6.70;53.10
68766;DHT22;55756;45.582;11.484;2024-01-30T07:25:42;6.70;53.10
68766;DHT22;55756;45.582;11.484;2024-01-30T07:28:08;6.70;53.40
68766;DHT22;55756;45.582;11.484;2024-01-30T07:30:42;6.70;53.60
68766;DHT22;55756;45.582;11.484;2024-01-30T07:33:09;6.70;53.60
68766;DHT22;55756;45.582;11.484;2024-01-30T07:35:35;6.70;53.70
68766;DHT22;55756;45.582;11.484;2024-01-30T07:38:01;6.70;53.80
68766;DHT22;55756;45.582;11.484;2024-01-30T07:40:27;6.70;54.00
68766;DHT22;55756;45.582;11.484;2024-01-30T07:42:56;6.70;54.30
68766;DHT22;55756;45.582;11.484;2024-01-30T07:45:21;6.70;54.20
68766;DHT22;55756;45.582;11.484;2024-01-30T07:47:50;6.70;54.40
68766;DHT22;55756;45.582;11.484;2024-01-30T07:50:15;6.70;54.30
68766;DHT22;55756;45.582;11.484;2024-01-30T07:52:42;6.80;54.60
68766;DHT22;55756;45.582;11.484;2024-01-30T07:55:08;6.80;54.50
68766;DHT22;55756;45.582;11.484;2024-01-30T07:57:34;6.80;54.90
68766;DHT22;55756;45.582;11.484;2024-01-30T08:00:00;6.80;55.10
68766;DHT22;55756;45.582;11.484;2024-01-30T08:02:26;6.80;55.20
68766;DHT22;55756;45.582;11.484;2024-01-30T08:04:52;6.90;55.50
68766;DHT22;55756;45.582;11.484;2024-01-30T08:07:17;6.90;55.50
68766;DHT22;55756;45.582;11.484;2024-01-30T08:09:43;6.90;55.60
68766;DHT22;55756;45.582;11.484;2024-01-30T08:12:09;7.00;55.80
68766;DHT22;55756;45.582;11.484;2024-01-30T08:14:35;7.00;55.90
68766;DHT22;55756;45.582;11.484;2024-01-30T08:17:01;7.00;56.10
68766;DHT22;55756;45.582;11.484;2024-01-30T08:19:26;7.10;56.20
68766;DHT22;55756;45.582;11.484;2024-01-30T08:21:52;7.10;56.40
68766;DHT22;55756;45.582;11.484;2024-01-30T08:24:18;7.10;56.50
68766;DHT22;55756;45.582;11.484;2024-01-30T08:26:43;7.10;56.60
68766;DHT22;55756;45.582;11.484;2024-01-30T08:29:09;7.10;56.70
68766;DHT22;55756;45.582;11.484;2024-01-30T08:31:35;7.20;56.80
68766;DHT22;55756;45.582;11.484;2024-01-30T08:34:01;7.20;56.80
68766;DHT22;55756;45.582;11.484;2024-01-30T08:36:26;7.20;56.90
68766;DHT22;55756;45.582;11.484;2024-01-30T08:38:52;7.20;56.90
68766;DHT22;55756;45.582;11.484;2024-01-30T08:41:18;7.30;57.30
68766;DHT22;55756;45.582;11.484;2024-01-30T08:43:44;7.30;57.50
68766;DHT22;55756;45.582;11.484;2024-01-30T08:46:10;7.30;57.60
68766;DHT22;55756;45.582;11.484;2024-01-30T08:48:36;7.40;57.70
68766;DHT22;55756;45.582;11.484;2024-01-30T08:51:02;7.40;57.60
68766;DHT22;55756;45.582;11.484;2024-01-30T08:53:27;7.50;57.70
68766;DHT22;55756;45.582;11.484;2024-01-30T08:55:53;7.50;58.10
68766;DHT22;55756;45.582;11.484;2024-01-30T08:58:19;7.50;58.10
68766;DHT22;55756;45.582;11.484;2024-01-30T09:00:45;7.60;58.20
68766;DHT22;55756;45.582;11.484;2024-01-30T09:03:11;7.60;58.30
68766;DHT22;55756;45.582;11.484;2024-01-30T09:05:36;7.70;58.20
68766;DHT22;55756;45.582;11.484;2024-01-30T09:08:02;7.70;58.20
68766;DHT22;55756;45.582;11.484;2024-01-30T09:10:28;7.70;58.30
68766;DHT22;55756;45.582;11.484;2024-01-30T09:12:53;7.80;58.40
68766;DHT22;55756;45.582;11.484;2024-01-30T09:15:19;7.80;58.50
68766;DHT22;55756;45.582;11.484;2024-01-30T09:17:45;7.90;58.50
68766;DHT22;55756;45.582;11.484;2024-01-30T09:20:11;7.90;58.50
68766;DHT22;55756;45.582;11.484;2024-01-30T09:22:37;7.90;58.50
68766;DHT22;55756;45.582;11.484;2024-01-30T09:25:03;7.90;58.80
68766;DHT22;55756;45.582;11.484;2024-01-30T09:27:29;8.00;59.10
68766;DHT22;55756;45.582;11.484;2024-01-30T09:29:55;8.00;59.20
68766;DHT22;55756;45.582;11.484;2024-01-30T09:32:20;8.10;59.20
68766;DHT22;55756;45.582;11.484;2024-01-30T09:34:46;8.20;59.30
68766;DHT22;55756;45.582;11.484;2024-01-30T09:37:12;8.20;59.40
68766;DHT22;55756;45.582;11.484;2024-01-30T09:39:37;8.20;59.60
68766;DHT22;55756;45.582;11.484;2024-01-30T09:44:51;8.30;60.30
68766;DHT22;55756;45.582;11.484;2024-01-30T09:47:17;8.30;60.50
68766;DHT22;55756;45.582;11.484;2024-01-30T09:49:43;8.40;60.70
68766;DHT22;55756;45.582;11.484;2024-01-30T09:52:09;8.50;60.60
68766;DHT22;55756;45.582;11.484;2024-01-30T09:54:36;8.50;60.80
68766;DHT22;55756;45.582;11.484;2024-01-30T09:57:04;8.60;60.70
68766;DHT22;55756;45.582;11.484;2024-01-30T09:59:30;8.60;61.00
68766;DHT22;55756;45.582;11.484;2024-01-30T10:01:56;8.70;61.10
68766;DHT22;55756;45.582;11.484;2024-01-30T10:04:22;8.70;61.20
68766;DHT22;55756;45.582;11.484;2024-01-30T10:06:48;8.80;60.90
68766;DHT22;55756;45.582;11.484;2024-01-30T10:09:14;8.80;61.00
68766;DHT22;55756;45.582;11.484;2024-01-30T10:11:40;8.80;60.90
68766;DHT22;55756;45.582;11.484;2024-01-30T10:14:06;8.90;61.00
68766;DHT22;55756;45.582;11.484;2024-01-30T10:16:31;8.90;61.00
68766;DHT22;55756;45.582;11.484;2024-01-30T10:18:57;8.90;60.90
68766;DHT22;55756;45.582;11.484;2024-01-30T10:21:23;9.00;60.80
68766;DHT22;55756;45.582;11.484;2024-01-30T10:23:50;9.00;60.90
68766;DHT22;55756;45.582;11.484;2024-01-30T10:26:19;9.10;61.10
68766;DHT22;55756;45.582;11.484;2024-01-30T10:28:44;9.20;61.30
68766;DHT22;55756;45.582;11.484;2024-01-30T10:31:10;9.20;61.60
68766;DHT22;55756;45.582;11.484;2024-01-30T10:33:36;9.30;61.40
68766;DHT22;55756;45.582;11.484;2024-01-30T10:36:03;9.30;61.80
68766;DHT22;55756;45.582;11.484;2024-01-30T10:38:30;9.40;61.80
68766;DHT22;55756;45.582;11.484;2024-01-30T10:40:57;9.40;62.00
68766;DHT22;55756;45.582;11.484;2024-01-30T10:43:30;9.50;61.90
68766;DHT22;55756;45.582;11.484;2024-01-30T10:46:03;9.60;61.60
68766;DHT22;55756;45.582;11.484;2024-01-30T10:48:32;9.60;61.30
68766;DHT22;55756;45.582;11.484;2024-01-30T10:51:02;9.70;61.00
68766;DHT22;55756;45.582;11.484;2024-01-30T10:53:30;9.70;60.90
68766;DHT22;55756;45.582;11.484;2024-01-30T10:55:56;9.70;60.50
68766;DHT22;55756;45.582;11.484;2024-01-30T10:58:23;9.80;60.40
68766;DHT22;55756;45.582;11.484;2024-01-30T11:00:50;9.80;60.10
68766;DHT22;55756;45.582;11.484;2024-01-30T11:03:16;9.90;60.10
68766;DHT22;55756;45.582;11.484;2024-01-30T11:05:42;10.00;59.90
68766;DHT22;55756;45.582;11.484;2024-01-30T11:08:13;10.00;59.70
68766;DHT22;55756;45.582;11.484;2024-01-30T11:10:48;10.00;59.70
68766;DHT22;55756;45.582;11.484;2024-01-30T11:13:15;10.10;59.20
68766;DHT22;55756;45.582;11.484;2024-01-30T11:15:40;10.20;58.60
68766;DHT22;55756;45.582;11.484;2024-01-30T11:18:06;10.20;58.60
68766;DHT22;55756;45.582;11.484;2024-01-30T11:20:32;10.20;58.40
68766;DHT22;55756;45.582;11.484;2024-01-30T11:22:59;10.30;58.10
68766;DHT22;55756;45.582;11.484;2024-01-30T11:25:27;10.30;57.50
68766;DHT22;55756;45.582;11.484;2024-01-30T11:27:54;10.40;57.30
68766;DHT22;55756;45.582;11.484;2024-01-30T11:30:24;10.40;57.10
68766;DHT22;55756;45.582;11.484;2024-01-30T11:33:00;10.50;57.40
68766;DHT22;55756;45.582;11.484;2024-01-30T11:35:26;10.50;57.60
68766;DHT22;55756;45.582;11.484;2024-01-30T11:37:52;10.60;57.60
68766;DHT22;55756;45.582;11.484;2024-01-30T11:40:19;10.60;57.50
68766;DHT22;55756;45.582;11.484;2024-01-30T11:42:45;10.60;57.40
68766;DHT22;55756;45.582;11.484;2024-01-30T11:45:12;10.70;57.70
68766;DHT22;55756;45.582;11.484;2024-01-30T11:47:38;10.70;57.60
68766;DHT22;55756;45.582;11.484;2024-01-30T11:50:05;10.80;57.40
68766;DHT22;55756;45.582;11.484;2024-01-30T11:52:33;10.80;57.20
68766;DHT22;55756;45.582;11.484;2024-01-30T11:55:00;10.90;57.00
68766;DHT22;55756;45.582;11.484;2024-01-30T11:57:27;10.90;57.10
68766;DHT22;55756;45.582;11.484;2024-01-30T11:59:52;11.00;57.00
68766;DHT22;55756;45.582;11.484;2024-01-30T12:02:18;11.00;56.60
68766;DHT22;55756;45.582;11.484;2024-01-30T12:04:44;11.00;56.40
68766;DHT22;55756;45.582;11.484;2024-01-30T12:07:11;11.00;56.30
68766;DHT22;55756;45.582;11.484;2024-01-30T12:09:37;11.10;56.20
68766;DHT22;55756;45.582;11.484;2024-01-30T12:12:03;11.10;56.00
68766;DHT22;55756;45.582;11.484;2024-01-30T12:14:30;11.10;56.20
68766;DHT22;55756;45.582;11.484;2024-01-30T12:16:56;11.20;56.20
68766;DHT22;55756;45.582;11.484;2024-01-30T12:19:23;11.20;56.10
68766;DHT22;55756;45.582;11.484;2024-01-30T12:21:56;11.20;56.20
68766;DHT22;55756;45.582;11.484;2024-01-30T12:24:28;11.30;56.20
68766;DHT22;55756;45.582;11.484;2024-01-30T12:26:59;11.30;56.40
68766;DHT22;55756;45.582;11.484;2024-01-30T12:29:25;11.30;56.40
68766;DHT22;55756;45.582;11.484;2024-01-30T12:31:54;11.30;56.60
68766;DHT22;55756;45.582;11.484;2024-01-30T12:34:20;11.40;56.30
68766;DHT22;55756;45.582;11.484;2024-01-30T12:36:47;11.40;56.20
68766;DHT22;55756;45.582;11.484;2024-01-30T12:39:15;11.40;56.10
68766;DHT22;55756;45.582;11.484;2024-01-30T12:41:41;11.40;56.10
68766;DHT22;55756;45.582;11.484;2024-01-30T12:44:07;11.50;55.70
68766;DHT22;55756;45.582;11.484;2024-01-30T12:46:34;11.50;55.40
68766;DHT22;55756;45.582;11.484;2024-01-30T12:49:00;11.60;55.30
68766;DHT22;55756;45.582;11.484;2024-01-30T12:51:26;11.60;55.10
68766;DHT22;55756;45.582;11.484;2024-01-30T12:53:51;11.70;54.90
68766;DHT22;55756;45.582;11.484;2024-01-30T12:56:17;11.70;54.60
68766;DHT22;55756;45.582;11.484;2024-01-30T12:58:43;11.80;54.70
68766;DHT22;55756;45.582;11.484;2024-01-30T13:01:09;11.80;54.80
68766;DHT22;55756;45.582;11.484;2024-01-30T13:03:35;11.80;54.60
68766;DHT22;55756;45.582;11.484;2024-01-30T13:06:01;11.90;54.80
68766;DHT22;55756;45.582;11.484;2024-01-30T13:08:27;11.90;54.90
68766;DHT22;55756;45.582;11.484;2024-01-30T13:10:52;11.90;55.00
68766;DHT22;55756;45.582;11.484;2024-01-30T13:13:18;11.90;55.30
68766;DHT22;55756;45.582;11.484;2024-01-30T13:15:44;12.00;55.60
68766;DHT22;55756;45.582;11.484;2024-01-30T13:18:10;12.00;55.50
68766;DHT22;55756;45.582;11.484;2024-01-30T13:20:35;12.10;55.80
68766;DHT22;55756;45.582;11.484;2024-01-30T13:23:01;12.10;55.60
68766;DHT22;55756;45.582;11.484;2024-01-30T13:25:27;12.10;55.20
68766;DHT22;55756;45.582;11.484;2024-01-30T13:27:53;12.20;54.90
68766;DHT22;55756;45.582;11.484;2024-01-30T13:30:18;12.20;54.70
68766;DHT22;55756;45.582;11.484;2024-01-30T13:32:44;12.20;54.50
68766;DHT22;55756;45.582;11.484;2024-01-30T13:35:11;12.20;54.20
68766;DHT22;55756;45.582;11.484;2024-01-30T13:37:37;12.20;53.60
68766;DHT22;55756;45.582;11.484;2024-01-30T13:40:05;12.30;52.60
68766;DHT22;55756;45.582;11.484;2024-01-30T13:42:32;12.30;52.20
68766;DHT22;55756;45.582;11.484;2024-01-30T13:44:58;12.30;51.80
68766;DHT22;55756;45.582;11.484;2024-01-30T13:47:30;12.30;52.00
68766;DHT22;55756;45.582;11.484;2024-01-30T13:49:56;12.30;52.70
68766;DHT22;55756;45.582;11.484;2024-01-30T13:52:21;12.30;52.60
68766;DHT22;55756;45.582;11.484;2024-01-30T13:54:47;12.30;52.00
68766;DHT22;55756;45.582;11.484;2024-01-30T13:57:13;12.40;50.70
68766;DHT22;55756;45.582;11.484;2024-01-30T13:59:39;12.40;49.90
68766;DHT22;55756;45.582;11.484;2024-01-30T14:02:05;12.40;49.40
68766;DHT22;55756;45.582;11.484;2024-01-30T14:04:32;12.40;50.40
68766;DHT22;55756;45.582;11.484;2024-01-30T14:06:58;12.40;50.90
68766;DHT22;55756;45.582;11.484;2024-01-30T14:09:23;12.40;51.60
68766;DHT22;55756;45.582;11.484;2024-01-30T14:11:49;12.50;52.10
68766;DHT22;55756;45.582;11.484;2024-01-30T14:14:15;12.50;52.50
68766;DHT22;55756;45.582;11.484;2024-01-30T14:16:40;12.50;52.30
68766;DHT22;55756;45.582;11.484;2024-01-30T14:19:06;12.50;52.10
68766;DHT22;55756;45.582;11.484;2024-01-30T14:21:32;12.50;51.80
68766;DHT22;55756;45.582;11.484;2024-01-30T14:23:58;12.60;51.50
68766;DHT22;55756;45.582;11.484;2024-01-30T14:26:23;12.60;51.40
68766;DHT22;55756;45.582;11.484;2024-01-30T14:28:49;12.60;51.40
68766;DHT22;55756;45.582;11.484;2024-01-30T14:31:15;12.60;51.50
68766;DHT22;55756;45.582;11.484;2024-01-30T14:33:44;12.60;51.40
68766;DHT22;55756;45.582;11.484;2024-01-30T14:36:09;12.60;51.10
68766;DHT22;55756;45.582;11.484;2024-01-30T14:38:35;12.60;50.20
68766;DHT22;55756;45.582;11.484;2024-01-30T14:41:01;12.60;49.60
68766;DHT22;55756;45.582;11.484;2024-01-30T14:43:26;12.60;49.20
68766;DHT22;55756;45.582;11.484;2024-01-30T14:45:52;12.60;48.60
68766;DHT22;55756;45.582;11.484;2024-01-30T14:48:18;12.60;48.10
68766;DHT22;55756;45.582;11.484;2024-01-30T14:50:44;12.70;47.90
68766;DHT22;55756;45.582;11.484;2024-01-30T14:53:09;12.60;47.70
68766;DHT22;55756;45.582;11.484;2024-01-30T14:55:35;12.60;47.30
68766;DHT22;55756;45.582;11.484;2024-01-30T14:58:01;12.70;47.30
68766;DHT22;55756;45.582;11.484;2024-01-30T15:00:27;12.70;47.50
68766;DHT22;55756;45.582;11.484;2024-01-30T15:02:53;12.70;47.30
68766;DHT22;55756;45.582;11.484;2024-01-30T15:05:19;12.70;47.50
68766;DHT22;55756;45.582;11.484;2024-01-30T15:07:45;12.70;48.20
68766;DHT22;55756;45.582;11.484;2024-01-30T15:10:10;12.70;48.20
68766;DHT22;55756;45.582;11.484;2024-01-30T15:12:37;12.70;48.40
68766;DHT22;55756;45.582;11.484;2024-01-30T15:15:04;12.70;48.40
68766;DHT22;55756;45.582;11.484;2024-01-30T15:17:30;12.80;48.50
68766;DHT22;55756;45.582;11.484;2024-01-30T15:19:56;12.70;48.30
68766;DHT22;55756;45.582;11.484;2024-01-30T15:22:23;12.70;48.70
68766;DHT22;55756;45.582;11.484;2024-01-30T15:24:49;12.70;48.60